Time;durP1;ratioP1;P1;durP2;ratioP2;P2;SDS_P1;SDS_P2;PMS_P1;PMS_P2;Temp;Humidity;BMP_temperature;BMP_pressure;BME280_temperature;BME280_humidity;BME280_pressure;Samples;Min_cycle;Max_cycle;Signal;HPM_P1;HPM_P2
2023/08/16 00:00:26;;;;;;;13.23;9.77;;;24.50;93.30;;;;;;5090438;28;20047;-68
2023/08/16 00:03:30;;;;;;;15.68;9.68;;;24.50;93.50;;;;;;5089484;28;20054;-69
2023/08/16 00:06:34;;;;;;;14.82;9.05;;;24.60;93.40;;;;;;5090272;28;20047;-68
2023/08/16 00:09:39;;;;;;;16.05;9.75;;;24.50;93.30;;;;;;5090539;28;20475;-68
2023/08/16 00:12:44;;;;;;;11.90;9.13;;;24.60;93.10;;;;;;5090225;28;20055;-68
2023/08/16 00:15:48;;;;;;;17.15;9.70;;;24.60;93.10;;;;;;5091321;28;20051;-68
2023/08/16 00:18:52;;;;;;;16.25;9.30;;;24.60;93.20;;;;;;5090519;28;20527;-68
2023/08/16 00:21:57;;;;;;;14.90;9.65;;;24.60;93.30;;;;;;5093431;28;20039;-68
2023/08/16 00:25:01;;;;;;;16.00;9.98;;;24.40;93.20;;;;;;5093964;28;20051;-68
2023/08/16 00:28:05;;;;;;;12.43;9.90;;;24.30;93.60;;;;;;5093764;28;20101;-68
2023/08/16 00:31:09;;;;;;;13.93;9.52;;;24.30;93.70;;;;;;5093960;28;20039;-68
2023/08/16 00:34:13;;;;;;;13.57;9.15;;;24.40;93.50;;;;;;5092782;28;20059;-68
2023/08/16 00:37:17;;;;;;;13.38;8.90;;;24.50;93.20;;;;;;5093027;28;20503;-68
2023/08/16 00:40:21;;;;;;;17.48;9.98;;;24.50;93.40;;;;;;5092842;28;20047;-68
2023/08/16 00:43:24;;;;;;;17.27;9.38;;;24.40;93.30;;;;;;5093610;28;20047;-68
2023/08/16 00:46:30;;;;;;;13.48;9.57;;;24.30;93.60;;;;;;5081193;28;20058;-68
2023/08/16 00:49:37;;;;;;;12.70;10.23;;;24.20;93.70;;;;;;5093295;28;20043;-68
2023/08/16 00:52:41;;;;;;;12.73;9.63;;;24.20;93.90;;;;;;5093354;28;20125;-68
2023/08/16 00:55:45;;;;;;;15.55;9.38;;;24.20;93.90;;;;;;5094026;28;20059;-68
2023/08/16 00:58:49;;;;;;;10.07;8.88;;;24.10;93.90;;;;;;5092503;28;20519;-68
2023/08/16 01:01:54;;;;;;;16.90;10.00;;;24.10;94.10;;;;;;5093087;28;20047;-67
2023/08/16 01:04:58;;;;;;;16.08;9.43;;;25.40;94.50;;;;;;5093151;28;20047;-67
2023/08/16 01:08:03;;;;;;;12.02;9.10;;;24.10;94.00;;;;;;5080491;28;20396;-67
2023/08/16 01:11:35;;;;;;;11.10;8.85;;;24.10;94.20;;;;;;5092638;28;20507;-68
2023/08/16 01:15:05;;;;;;;9.20;8.25;;;24.10;94.10;;;;;;5098571;28;20130;-67
2023/08/16 01:18:10;;;;;;;9.82;8.57;;;24.20;94.10;;;;;;5071299;28;20047;-68
2023/08/16 01:21:15;;;;;;;13.38;9.02;;;24.20;93.80;;;;;;5091778;28;20403;-68
2023/08/16 01:24:40;;;;;;;9.40;8.13;;;24.30;93.70;;;;;;5093008;28;20388;-68
2023/08/16 01:27:45;;;;;;;10.35;7.78;;;21.70;92.40;;;;;;5091506;28;20051;-68
2023/08/16 01:30:50;;;;;;;10.77;8.45;;;24.40;93.20;;;;;;5092745;28;20059;-68
2023/08/16 01:33:54;;;;;;;12.25;8.52;;;24.30;93.30;;;;;;5091790;28;20055;-68
2023/08/16 01:36:58;;;;;;;9.43;7.90;;;24.30;93.40;;;;;;5092598;28;20035;-68
2023/08/16 01:40:04;;;;;;;9.65;8.52;;;24.30;93.40;;;;;;5092477;28;20043;-68
2023/08/16 01:43:12;;;;;;;10.27;8.45;;;24.30;93.40;;;;;;5091438;28;20035;-68
2023/08/16 01:46:18;;;;;;;13.68;9.13;;;24.20;93.40;;;;;;5092554;28;20523;-68
2023/08/16 01:49:22;;;;;;;13.23;8.45;;;24.20;93.40;;;;;;5091328;28;20043;-68
2023/08/16 01:52:28;;;;;;;10.57;8.80;;;24.20;93.60;;;;;;5091306;28;20043;-69
2023/08/16 01:55:31;;;;;;;11.35;8.73;;;24.20;93.60;;;;;;5091995;28;20408;-68
2023/08/16 01:58:35;;;;;;;9.75;8.10;;;24.20;93.60;;;;;;5091335;28;20043;-69
2023/08/16 02:01:39;;;;;;;9.52;8.60;;;24.70;93.80;;;;;;5091334;28;20511;-68
2023/08/16 02:04:43;;;;;;;9.43;8.15;;;24.20;93.60;;;;;;5091311;28;20047;-68
2023/08/16 02:07:47;;;;;;;15.80;8.52;;;24.10;93.40;;;;;;5091854;28;20055;-68
2023/08/16 02:10:51;;;;;;;15.98;8.68;;;24.10;94.00;;;;;;5090929;28;20408;-68
2023/08/16 02:13:55;;;;;;;9.65;8.10;;;25.60;94.50;;;;;;5090823;28;20531;-68
2023/08/16 02:17:07;;;;;;;10.48;9.48;;;23.90;94.20;;;;;;5091595;28;20051;-68
2023/08/16 02:20:12;;;;;;;13.25;9.23;;;23.80;94.20;;;;;;5090930;28;20313;-68
2023/08/16 02:23:17;;;;;;;11.77;9.23;;;23.70;94.80;;;;;;5091060;28;20047;-68
2023/08/16 02:26:22;;;;;;;14.38;9.40;;;23.80;95.00;;;;;;5090435;28;20067;-69
2023/08/16 02:29:26;;;;;;;12.73;9.95;;;23.80;95.00;;;;;;5091340;28;20046;-69
2023/08/16 02:32:30;;;;;;;13.52;10.23;;;23.70;94.90;;;;;;5091716;28;20034;-68
2023/08/16 02:35:34;;;;;;;11.63;9.20;;;23.70;94.90;;;;;;5090342;28;20054;-68
2023/08/16 02:38:38;;;;;;;11.00;9.90;;;23.60;95.20;;;;;;5091496;28;20043;-69
2023/08/16 02:41:41;;;;;;;13.00;10.27;;;24.10;95.60;;;;;;5091552;28;20062;-68
2023/08/16 02:44:46;;;;;;;14.35;10.35;;;23.50;95.20;;;;;;5090513;28;20043;-67
2023/08/16 02:47:49;;;;;;;11.48;9.60;;;23.50;95.30;;;;;;5091123;28;20388;-67
2023/08/16 02:50:53;;;;;;;14.02;10.68;;;23.00;95.10;;;;;;5090980;28;20388;-68
2023/08/16 02:53:57;;;;;;;13.15;9.80;;;24.70;96.00;;;;;;5091238;28;20051;-68
2023/08/16 02:57:01;;;;;;;11.15;9.27;;;23.20;95.70;;;;;;5091235;28;20185;-68
2023/08/16 03:00:08;;;;;;;12.52;10.40;;;23.70;95.80;;;;;;5091193;28;20499;-69
2023/08/16 03:03:12;;;;;;;11.95;10.07;;;22.90;95.70;;;;;;5090978;28;20051;-68
2023/08/16 03:06:17;;;;;;;12.50;9.60;;;22.90;96.40;;;;;;5090916;28;20043;-69
2023/08/16 03:09:21;;;;;;;11.10;9.52;;;24.60;96.40;;;;;;5090970;28;20403;-69
2023/08/16 03:12:24;;;;;;;10.32;8.93;;;23.10;96.20;;;;;;5090910;28;20499;-67
2023/08/16 03:15:28;;;;;;;9.57;8.57;;;23.30;95.40;;;;;;5090626;28;20161;-68
2023/08/16 03:18:32;;;;;;;10.65;9.00;;;23.30;95.60;;;;;;5089914;28;20404;-69
2023/08/16 03:21:36;;;;;;;15.48;9.57;;;23.40;95.20;;;;;;5090564;28;20047;-68
2023/08/16 03:24:41;;;;;;;11.75;8.45;;;23.30;94.80;;;;;;5090056;28;20511;-68
2023/08/16 03:27:45;;;;;;;12.38;8.35;;;23.40;94.80;;;;;;5090534;28;20055;-68
2023/08/16 03:30:49;;;;;;;12.13;8.55;;;23.50;94.60;;;;;;5089969;28;20039;-69
2023/08/16 03:33:54;;;;;;;10.95;8.45;;;23.50;94.40;;;;;;5089654;28;20071;-67
2023/08/16 03:36:58;;;;;;;10.40;8.32;;;23.60;94.30;;;;;;5090096;28;20067;-68
2023/08/16 03:40:02;;;;;;;10.10;8.02;;;23.50;94.20;;;;;;5089791;28;20454;-68
2023/08/16 03:43:06;;;;;;;9.20;8.18;;;23.60;94.10;;;;;;5089633;28;20047;-68
2023/08/16 03:46:10;;;;;;;10.85;8.23;;;23.50;94.30;;;;;;5089767;28;20047;-68
2023/08/16 03:49:14;;;;;;;10.15;7.10;;;21.70;93.60;;;;;;5090883;28;20106;-68
2023/08/16 03:52:18;;;;;;;11.80;8.00;;;23.80;94.30;;;;;;5089825;28;20047;-68
2023/08/16 03:55:22;;;;;;;9.40;7.47;;;23.50;94.20;;;;;;5090947;28;20059;-69
2023/08/16 03:58:26;;;;;;;9.25;7.57;;;23.40;93.80;;;;;;5094312;28;20043;-70
2023/08/16 04:01:30;;;;;;;10.38;7.53;;;23.50;94.10;;;;;;5093796;28;20054;-68
2023/08/16 04:04:34;;;;;;;8.60;7.40;;;21.90;93.40;;;;;;5094494;28;20035;-68
2023/08/16 04:07:39;;;;;;;9.55;7.07;;;23.40;93.70;;;;;;5093361;28;20043;-70
2023/08/16 04:10:43;;;;;;;12.45;7.75;;;23.70;93.90;;;;;;5093526;28;20062;-69
2023/08/16 04:13:47;;;;;;;11.05;7.78;;;22.80;93.80;;;;;;5094123;28;20055;-68
2023/08/16 04:16:51;;;;;;;11.48;7.47;;;23.30;94.10;;;;;;5093530;28;20129;-68
2023/08/16 04:19:55;;;;;;;9.48;7.45;;;23.20;94.10;;;;;;5094215;28;20038;-68
2023/08/16 04:22:59;;;;;;;22.05;8.57;;;23.10;94.50;;;;;;5093751;28;20047;-68
2023/08/16 04:26:03;;;;;;;11.13;7.97;;;22.60;95.10;;;;;;5093837;28;20118;-68
2023/08/16 04:29:10;;;;;;;14.63;8.23;;;22.60;95.70;;;;;;5092835;28;20046;-68
2023/08/16 04:32:14;;;;;;;10.57;8.05;;;22.70;95.40;;;;;;5093051;28;20054;-68
2023/08/16 04:35:19;;;;;;;11.02;8.10;;;22.80;95.60;;;;;;5093406;28;20051;-68
2023/08/16 04:38:22;;;;;;;13.77;8.38;;;22.80;95.30;;;;;;5092542;28;20043;-68
2023/08/16 04:41:26;;;;;;;20.90;11.82;;;23.00;95.60;;;;;;5092768;28;20063;-69
2023/08/16 04:44:30;;;;;;;20.00;13.63;;;23.20;95.20;;;;;;5092624;28;20051;-68
2023/08/16 04:47:34;;;;;;;32.67;19.35;;;23.30;95.40;;;;;;5092414;28;20043;-69
2023/08/16 04:50:39;;;;;;;39.58;22.48;;;23.50;95.50;;;;;;5092655;28;20392;-69
2023/08/16 04:53:45;;;;;;;45.17;27.13;;;23.20;95.40;;;;;;5092275;28;20039;-69
2023/08/16 04:56:52;;;;;;;40.70;26.77;;;23.60;95.20;;;;;;5092276;28;20071;-68
2023/08/16 04:59:57;;;;;;;42.03;24.15;;;23.60;95.50;;;;;;5092517;28;20036;-68
2023/08/16 05:03:00;;;;;;;45.97;28.27;;;23.40;95.20;;;;;;5092320;28;20142;-68
2023/08/16 05:06:05;;;;;;;51.53;30.25;;;24.80;95.60;;;;;;5080486;28;20051;-68
2023/08/16 05:09:09;;;;;;;54.17;29.45;;;23.90;95.50;;;;;;5091763;28;20047;-68
2023/08/16 05:12:13;;;;;;;52.05;30.15;;;24.80;94.60;;;;;;5091978;28;20495;-68
2023/08/16 05:15:17;;;;;;;51.45;27.25;;;23.90;94.60;;;;;;5091887;28;20059;-68
2023/08/16 05:18:21;;;;;;;44.83;24.30;;;23.70;94.90;;;;;;5092744;28;20047;-68
2023/08/16 05:21:25;;;;;;;33.03;21.05;;;;;;;;;;5092172;28;20114;-67
2023/08/16 05:24:29;;;;;;;34.85;20.88;;;23.70;95.50;;;;;;5092495;28;20051;-69
2023/08/16 05:27:33;;;;;;;35.72;20.77;;;23.60;96.00;;;;;;5092481;28;20058;-68
2023/08/16 05:30:37;;;;;;;26.58;19.10;;;23.50;96.90;;;;;;5092430;28;20039;-68
2023/08/16 05:33:41;;;;;;;23.33;17.63;;;23.50;97.00;;;;;;5092608;28;20050;-68
2023/08/16 05:36:46;;;;;;;37.95;16.92;;;23.60;96.70;;;;;;5092559;28;20506;-69
2023/08/16 05:39:51;;;;;;;44.08;18.08;;;23.70;96.90;;;;;;5092183;28;20043;-68
2023/08/16 05:42:54;;;;;;;24.73;15.00;;;23.70;96.90;;;;;;5092327;28;20510;-68
2023/08/16 05:45:58;;;;;;;20.40;15.00;;;23.90;96.50;;;;;;5092331;28;20044;-68
2023/08/16 05:49:05;;;;;;;22.80;15.43;;;23.90;96.30;;;;;;5092060;28;20051;-69
2023/08/16 05:52:09;;;;;;;20.10;15.10;;;23.80;96.90;;;;;;5092177;28;20051;-67
2023/08/16 05:55:13;;;;;;;25.75;15.48;;;23.80;97.00;;;;;;5092409;28;20054;-68
2023/08/16 05:58:16;;;;;;;19.67;15.88;;;23.40;97.00;;;;;;5092321;28;20051;-67
2023/08/16 06:01:20;;;;;;;22.50;14.68;;;23.70;97.30;;;;;;5091908;28;20388;-67
2023/08/16 06:04:25;;;;;;;22.95;15.18;;;23.80;97.30;;;;;;5092129;28;20051;-68
2023/08/16 06:07:29;;;;;;;26.92;14.50;;;23.80;97.10;;;;;;5091839;28;20519;-69
2023/08/16 06:10:33;;;;;;;19.65;15.43;;;23.90;97.30;;;;;;5091861;28;20043;-71
2023/08/16 06:13:37;;;;;;;18.17;13.07;;;23.90;97.20;;;;;;5091006;28;20258;-68
2023/08/16 06:16:41;;;;;;;19.98;13.55;;;23.90;97.50;;;;;;5091950;28;20411;-70
2023/08/16 06:19:45;;;;;;;24.73;13.98;;;24.40;97.60;;;;;;5091489;28;20039;-68
2023/08/16 06:22:49;;;;;;;16.10;13.25;;;24.20;97.40;;;;;;5091288;28;20047;-68
2023/08/16 06:25:53;;;;;;;24.13;13.63;;;24.30;97.20;;;;;;5091693;28;20067;-68
2023/08/16 06:28:58;;;;;;;21.30;14.32;;;24.50;96.70;;;;;;5091590;28;20059;-68
2023/08/16 06:32:03;;;;;;;18.98;13.18;;;24.50;96.90;;;;;;5091269;28;20039;-68
2023/08/16 06:35:08;;;;;;;26.58;13.35;;;24.50;97.20;;;;;;5091272;28;20051;-67
2023/08/16 06:38:13;;;;;;;21.70;14.57;;;24.60;97.30;;;;;;5091515;28;20090;-68
2023/08/16 06:41:17;;;;;;;21.52;14.75;;;24.60;97.10;;;;;;5091278;28;20511;-68
2023/08/16 06:44:20;;;;;;;27.08;15.45;;;24.70;97.40;;;;;;5091129;28;20051;-68
2023/08/16 06:47:25;;;;;;;20.88;14.82;;;24.70;97.50;;;;;;5091491;28;20047;-69
2023/08/16 06:50:29;;;;;;;20.10;15.48;;;24.70;97.70;;;;;;5091097;28;20396;-68
2023/08/16 06:53:33;;;;;;;26.60;15.40;;;24.70;97.80;;;;;;5091159;28;20043;-68
2023/08/16 06:56:36;;;;;;;20.30;12.98;;;24.70;98.00;;;;;;5090920;28;20062;-68
2023/08/16 06:59:41;;;;;;;21.83;12.07;;;24.80;98.20;;;;;;5090986;28;20043;-70
2023/08/16 07:02:45;;;;;;;25.08;14.40;;;24.90;98.10;;;;;;5090817;28;20042;-70
2023/08/16 07:05:51;;;;;;;26.60;12.77;;;25.00;97.90;;;;;;5090801;28;20047;-68
2023/08/16 07:08:55;;;;;;;12.13;10.48;;;25.10;97.90;;;;;;5091000;28;20381;-68
2023/08/16 07:11:59;;;;;;;19.70;12.35;;;25.20;98.10;;;;;;5090627;28;20039;-68
2023/08/16 07:15:03;;;;;;;16.73;10.90;;;25.40;97.70;;;;;;5090716;28;20055;-68
2023/08/16 07:18:07;;;;;;;22.02;10.82;;;25.70;97.70;;;;;;5089921;28;20040;-68
2023/08/16 07:21:11;;;;;;;19.88;10.68;;;26.00;96.90;;;;;;5090691;28;20047;-67
2023/08/16 07:24:15;;;;;;;12.82;8.10;;;26.20;96.70;;;;;;5090873;28;20054;-69
2023/08/16 07:27:19;;;;;;;12.20;7.75;;;26.20;96.30;;;;;;5089781;28;20507;-68
2023/08/16 07:30:23;;;;;;;9.77;6.82;;;26.20;96.30;;;;;;5091316;28;20035;-68
2023/08/16 07:33:30;;;;;;;15.80;8.05;;;26.30;96.40;;;;;;5093903;28;20420;-69
2023/08/16 07:36:34;;;;;;;10.55;6.68;;;26.50;96.40;;;;;;5094788;28;20154;-69
2023/08/16 07:39:38;;;;;;;16.90;6.38;;;26.90;96.10;;;;;;5094694;28;20047;-68
2023/08/16 07:42:42;;;;;;;12.00;6.40;;;27.40;95.30;;;;;;5094890;28;20419;-68
2023/08/16 07:45:52;;;;;;;12.45;6.63;;;27.50;94.70;;;;;;5094583;28;20051;-70
2023/08/16 07:48:56;;;;;;;8.82;6.05;;;27.80;94.60;;;;;;5094403;28;20043;-69
2023/08/16 07:52:00;;;;;;;7.22;6.05;;;28.10;94.40;;;;;;5094259;28;20039;-69
2023/08/16 07:55:04;;;;;;;8.38;5.88;;;28.40;93.70;;;;;;5094341;28;20051;-69
2023/08/16 07:58:08;;;;;;;13.48;6.22;;;28.50;93.40;;;;;;5094549;28;20039;-70
2023/08/16 08:01:12;;;;;;;9.63;6.07;;;28.70;93.40;;;;;;5094271;28;20395;-69
2023/08/16 08:04:16;;;;;;;13.23;6.38;;;28.90;93.20;;;;;;5094143;28;20043;-68
2023/08/16 08:07:20;;;;;;;7.50;5.65;;;28.90;92.80;;;;;;5094719;28;20051;-69
2023/08/16 08:10:24;;;;;;;6.10;5.55;;;28.80;92.80;;;;;;5094447;28;20059;-68
2023/08/16 08:13:28;;;;;;;6.70;6.00;;;28.80;92.80;;;;;;5094554;28;20325;-67
2023/08/16 08:16:32;;;;;;;10.65;6.00;;;28.90;92.70;;;;;;5093937;28;20050;-67
2023/08/16 08:19:36;;;;;;;6.60;6.00;;;29.10;92.60;;;;;;5093646;28;20283;-67
2023/08/16 08:22:40;;;;;;;8.20;5.53;;;29.30;92.20;;;;;;5093847;28;20400;-69
2023/08/16 08:25:44;;;;;;;12.25;7.07;;;29.30;92.20;;;;;;5094136;28;20039;-69
2023/08/16 08:28:48;;;;;;;6.68;5.93;;;29.20;92.20;;;;;;5093712;28;20074;-67
2023/08/16 08:31:53;;;;;;;8.80;5.90;;;29.20;91.70;;;;;;5093612;28;20400;-68
2023/08/16 08:34:57;;;;;;;9.77;5.50;;;29.10;92.00;;;;;;5092314;28;20400;-68
2023/08/16 08:38:01;;;;;;;11.30;6.15;;;29.20;92.20;;;;;;5091925;28;20054;-67
2023/08/16 08:41:06;;;;;;;7.43;5.45;;;29.30;91.80;;;;;;5091533;28;20514;-68
2023/08/16 08:44:10;;;;;;;7.68;5.65;;;29.40;91.90;;;;;;5092157;28;20047;-67
2023/08/16 08:47:15;;;;;;;8.50;6.40;;;29.20;91.90;;;;;;5091974;28;20055;-68
2023/08/16 08:50:19;;;;;;;8.77;7.18;;;29.10;92.00;;;;;;5092733;28;20050;-67
2023/08/16 08:53:24;;;;;;;13.38;7.53;;;28.90;92.40;;;;;;5093532;28;20514;-67
2023/08/16 08:56:30;;;;;;;8.48;6.40;;;28.80;92.60;;;;;;5093289;28;20495;-68
2023/08/16 08:59:38;;;;;;;8.75;6.65;;;28.80;92.50;;;;;;5093497;28;20040;-68
2023/08/16 09:02:43;;;;;;;13.60;6.95;;;28.80;92.60;;;;;;5092158;28;20546;-68
2023/08/16 09:05:53;;;;;;;14.73;8.10;;;28.80;92.50;;;;;;5093041;28;20039;-67
2023/08/16 09:08:57;;;;;;;7.40;6.68;;;28.80;92.40;;;;;;5093045;28;20047;-68
2023/08/16 09:12:01;;;;;;;15.88;9.45;;;28.80;92.40;;;;;;5093076;28;20047;-67
2023/08/16 09:15:07;;;;;;;8.70;7.75;;;28.80;92.50;;;;;;5093328;28;20071;-68
2023/08/16 09:18:19;;;;;;;11.25;7.90;;;29.00;92.60;;;;;;5093184;28;20063;-68
2023/08/16 09:21:28;;;;;;;11.93;7.53;;;29.40;92.30;;;;;;5092610;28;20043;-68
2023/08/16 09:24:32;;;;;;;11.43;7.45;;;29.80;91.70;;;;;;5092990;28;20043;-68
2023/08/16 09:27:39;;;;;;;8.80;7.90;;;29.90;90.80;;;;;;5092683;28;20059;-67
2023/08/16 09:30:43;;;;;;;10.77;8.23;;;29.70;90.90;;;;;;5092591;28;20039;-67
2023/08/16 09:33:52;;;;;;;12.63;8.65;;;29.60;91.10;;;;;;5092850;28;20047;-67
2023/08/16 09:36:56;;;;;;;10.70;7.97;;;29.50;91.30;;;;;;5092316;28;20055;-67
2023/08/16 09:40:02;;;;;;;8.98;8.05;;;29.50;91.50;;;;;;5092392;28;20043;-67
2023/08/16 09:43:06;;;;;;;13.88;7.95;;;29.50;91.60;;;;;;5091385;28;20043;-67
2023/08/16 09:46:11;;;;;;;13.70;8.73;;;29.70;91.40;;;;;;5092546;28;20039;-68
2023/08/16 09:49:15;;;;;;;11.32;9.02;;;29.80;91.10;;;;;;5092310;28;20138;-69
2023/08/16 09:52:19;;;;;;;14.82;8.70;;;29.90;91.20;;;;;;5092120;28;20055;-68
2023/08/16 09:55:29;;;;;;;9.48;8.57;;;30.00;90.90;;;;;;5091960;28;20043;-67
2023/08/16 09:58:33;;;;;;;16.90;10.77;;;30.00;90.80;;;;;;5091893;28;20047;-68
2023/08/16 10:01:38;;;;;;;13.25;8.32;;;29.90;90.60;;;;;;5091946;28;20043;-68
2023/08/16 10:04:42;;;;;;;11.70;8.07;;;30.00;90.80;;;;;;5092014;28;20051;-68
2023/08/16 10:07:47;;;;;;;10.43;8.40;;;30.20;90.50;;;;;;5091816;28;20047;-68
2023/08/16 10:10:53;;;;;;;9.52;8.00;;;30.40;90.20;;;;;;5091793;28;20062;-68
2023/08/16 10:13:58;;;;;;;12.50;7.63;;;30.70;89.40;;;;;;5091131;28;20038;-68
2023/08/16 10:17:03;;;;;;;14.05;9.43;;;30.90;88.90;;;;;;5091733;28;20416;-67
2023/08/16 10:20:24;;;;;;;11.48;8.27;;;30.80;87.80;;;;;;5091863;28;20039;-67
2023/08/16 10:23:28;;;;;;;;;;;30.40;88.40;;;;;;5092236;28;20047;-68
2023/08/16 10:26:34;;;;;;;12.73;8.98;;;30.40;89.30;;;;;;5091680;28;19946;-68
2023/08/16 10:29:42;;;;;;;9.60;8.70;;;30.30;88.80;;;;;;5091306;28;20089;-68
2023/08/16 10:32:53;;;;;;;8.60;7.80;;;30.40;89.10;;;;;;5091548;28;20043;-68
2023/08/16 10:35:57;;;;;;;9.13;8.18;;;30.60;89.10;;;;;;5091305;28;20051;-68
2023/08/16 10:39:03;;;;;;;10.05;7.75;;;30.80;88.40;;;;;;5091536;28;20043;-67
2023/08/16 10:42:07;;;;;;;14.13;7.55;;;31.00;87.20;;;;;;5091017;28;20043;-67
2023/08/16 10:45:21;;;;;;;11.13;7.80;;;31.20;87.10;;;;;;5091290;28;20114;-68
2023/08/16 10:48:30;;;;;;;8.93;7.70;;;31.30;86.60;;;;;;5091195;28;20052;-68
2023/08/16 10:51:44;;;;;;;7.38;6.70;;;31.30;87.80;;;;;;5090687;28;20047;-68
2023/08/16 10:54:52;;;;;;;8.50;7.68;;;31.20;88.10;;;;;;5090413;28;20055;-67
2023/08/16 10:57:56;;;;;;;8.73;7.85;;;31.20;88.10;;;;;;5091114;28;20043;-68
2023/08/16 11:01:04;;;;;;;8.90;7.60;;;31.30;87.50;;;;;;5091201;28;20043;-67
2023/08/16 11:04:08;;;;;;;9.00;7.43;;;31.30;87.30;;;;;;5091020;28;20051;-67
2023/08/16 11:07:12;;;;;;;9.80;8.88;;;31.30;87.60;;;;;;5090979;28;20055;-68
2023/08/16 11:10:16;;;;;;;11.15;9.15;;;31.20;87.90;;;;;;5090858;28;20047;-68
2023/08/16 11:13:20;;;;;;;10.45;7.60;;;31.10;87.90;;;;;;5090867;28;20066;-68
2023/08/16 11:16:24;;;;;;;9.32;8.43;;;31.20;88.20;;;;;;5090770;28;20055;-67
2023/08/16 11:19:29;;;;;;;11.57;7.75;;;31.20;88.00;;;;;;5091151;28;20051;-68
2023/08/16 11:22:33;;;;;;;13.30;8.30;;;31.30;88.30;;;;;;5090856;28;20051;-68
2023/08/16 11:25:39;;;;;;;13.40;8.55;;;31.40;87.70;;;;;;5090718;28;20043;-68
2023/08/16 11:28:43;;;;;;;11.38;6.85;;;31.60;87.90;;;;;;5091381;28;20067;-67
2023/08/16 11:31:50;;;;;;;12.48;6.82;;;31.60;87.10;;;;;;5090753;28;20042;-68
2023/08/16 11:34:54;;;;;;;8.18;7.07;;;31.50;87.20;;;;;;5090535;28;20040;-67
2023/08/16 11:37:58;;;;;;;7.47;6.25;;;31.50;87.00;;;;;;5090538;28;20039;-68
2023/08/16 11:41:03;;;;;;;8.40;6.55;;;31.50;87.30;;;;;;5090756;28;20054;-67
2023/08/16 11:44:07;;;;;;;7.57;6.40;;;31.40;87.30;;;;;;5090714;28;20103;-68
2023/08/16 11:47:11;;;;;;;8.02;7.07;;;31.50;87.00;;;;;;5090695;28;20067;-67
2023/08/16 11:50:15;;;;;;;15.10;7.03;;;31.50;87.30;;;;;;5090681;28;20043;-67
2023/08/16 11:53:19;;;;;;;10.95;6.57;;;31.50;86.70;;;;;;5090249;28;20051;-68
2023/08/16 11:56:28;;;;;;;14.05;7.32;;;31.50;86.70;;;;;;5090393;28;20087;-67
2023/08/16 11:59:32;;;;;;;11.25;6.15;;;31.50;86.60;;;;;;5090761;28;20043;-68
2023/08/16 12:02:36;;;;;;;7.20;5.68;;;31.40;86.50;;;;;;5090273;28;20511;-67
2023/08/16 12:05:40;;;;;;;8.80;6.05;;;31.40;86.70;;;;;;5090678;28;20047;-67
2023/08/16 12:08:54;;;;;;;5.88;5.28;;;31.40;86.80;;;;;;5091057;28;20150;-67
2023/08/16 12:12:01;;;;;;;9.48;5.05;;;31.40;87.00;;;;;;5090516;28;20051;-67
2023/08/16 12:15:06;;;;;;;10.52;4.95;;;31.40;86.50;;;;;;5090214;28;20039;-67
2023/08/16 12:18:10;;;;;;;9.38;4.80;;;31.30;86.50;;;;;;5093831;28;20055;-67
2023/08/16 12:21:14;;;;;;;5.28;4.75;;;31.30;86.00;;;;;;5094102;28;20055;-67
2023/08/16 12:24:18;;;;;;;4.82;4.20;;;31.30;86.00;;;;;;5093961;28;20047;-68
2023/08/16 12:27:22;;;;;;;5.13;4.60;;;31.30;85.70;;;;;;5093682;28;20060;-68
2023/08/16 12:30:28;;;;;;;9.30;4.28;;;31.20;85.60;;;;;;5094018;28;20047;-68
2023/08/16 12:33:32;;;;;;;7.38;4.55;;;31.20;85.90;;;;;;5094027;28;20046;-68
2023/08/16 12:36:36;;;;;;;7.38;4.35;;;31.20;85.80;;;;;;5093492;28;20047;-67
2023/08/16 12:39:40;;;;;;;7.57;4.30;;;31.10;85.90;;;;;;5093820;28;20047;-68
2023/08/16 12:42:44;;;;;;;4.78;4.28;;;31.10;85.70;;;;;;5093377;28;20050;-67
2023/08/16 12:45:48;;;;;;;6.72;4.22;;;31.10;85.90;;;;;;5093626;28;20054;-67
2023/08/16 12:48:53;;;;;;;8.30;3.85;;;31.10;85.40;;;;;;5093346;28;20043;-67
2023/08/16 12:51:57;;;;;;;5.20;3.80;;;31.00;85.00;;;;;;5093455;28;20043;-67
2023/08/16 12:55:01;;;;;;;6.68;3.83;;;31.00;85.30;;;;;;5093595;28;20039;-67
2023/08/16 12:58:05;;;;;;;5.15;4.25;;;31.00;85.30;;;;;;5093488;28;20502;-68
2023/08/16 13:01:09;;;;;;;5.88;4.10;;;31.00;85.50;;;;;;5093347;28;20035;-67
2023/08/16 13:04:13;;;;;;;8.40;4.22;;;30.90;85.50;;;;;;5093189;28;20062;-67
2023/08/16 13:07:16;;;;;;;10.35;4.30;;;30.90;85.80;;;;;;5093352;28;20046;-67
2023/08/16 13:10:20;;;;;;;5.55;3.80;;;30.90;85.90;;;;;;5093027;28;20042;-67
2023/08/16 13:13:24;;;;;;;4.35;3.60;;;30.90;85.80;;;;;;5092897;28;20392;-67
2023/08/16 13:16:28;;;;;;;10.93;4.60;;;30.90;85.90;;;;;;5092990;28;20153;-68
2023/08/16 13:19:32;;;;;;;7.43;4.20;;;30.80;86.50;;;;;;5092860;28;20059;-67
2023/08/16 13:22:36;;;;;;;4.25;3.80;;;30.80;86.90;;;;;;5092907;28;20043;-68
2023/08/16 13:25:40;;;;;;;6.20;4.00;;;30.80;86.40;;;;;;5092917;28;20051;-68
2023/08/16 13:28:44;;;;;;;5.50;3.50;;;30.80;86.90;;;;;;5071557;28;20059;-68
2023/08/16 13:31:48;;;;;;;7.50;3.97;;;30.80;86.80;;;;;;5072369;28;20191;-67
2023/08/16 13:34:53;;;;;;;6.65;4.15;;;30.80;87.10;;;;;;5072396;28;20055;-67
2023/08/16 13:37:57;;;;;;;8.45;4.13;;;30.80;86.90;;;;;;5072439;28;20048;-68
2023/08/16 13:41:01;;;;;;;5.93;4.15;;;30.80;87.00;;;;;;5072416;28;20040;-68
2023/08/16 13:44:05;;;;;;;6.70;3.97;;;30.80;87.00;;;;;;5072208;28;20076;-67
2023/08/16 13:47:09;;;;;;;6.20;3.95;;;30.70;87.30;;;;;;5072143;28;20059;-68
2023/08/16 13:50:13;;;;;;;13.00;4.30;;;30.60;87.30;;;;;;5071990;28;20052;-67
2023/08/16 13:53:17;;;;;;;6.53;3.40;;;30.60;87.20;;;;;;5072048;28;20044;-67
2023/08/16 13:56:21;;;;;;;5.95;3.70;;;30.70;87.50;;;;;;5071969;28;20055;-68
2023/08/16 13:59:25;;;;;;;6.07;4.57;;;30.60;87.30;;;;;;5072097;28;20114;-67
2023/08/16 14:02:29;;;;;;;5.90;3.58;;;30.60;87.60;;;;;;5071728;28;20048;-67
2023/08/16 14:05:33;;;;;;;6.90;3.70;;;30.60;88.00;;;;;;5071659;28;20466;-68
2023/08/16 14:08:37;;;;;;;6.10;4.00;;;30.60;87.20;;;;;;5071912;28;20523;-67
2023/08/16 14:11:41;;;;;;;9.52;3.50;;;30.60;87.50;;;;;;5071503;28;20040;-67
2023/08/16 14:14:44;;;;;;;4.45;3.80;;;30.50;87.30;;;;;;5071549;28;20047;-67
2023/08/16 14:17:48;;;;;;;8.98;3.97;;;30.50;87.60;;;;;;5071427;28;20052;-67
2023/08/16 14:20:52;;;;;;;7.32;3.90;;;30.50;87.60;;;;;;5071607;28;20047;-67
2023/08/16 14:23:56;;;;;;;6.75;3.70;;;30.50;88.30;;;;;;5071327;28;20043;-67
2023/08/16 14:27:00;;;;;;;8.82;4.03;;;30.40;88.60;;;;;;5082509;28;20515;-67
2023/08/16 14:30:05;;;;;;;7.57;3.80;;;30.40;88.70;;;;;;5091799;28;20043;-68
2023/08/16 14:33:10;;;;;;;5.97;4.53;;;30.40;88.00;;;;;;5091406;28;20039;-67
2023/08/16 14:36:14;;;;;;;9.80;4.20;;;30.40;88.20;;;;;;5091348;28;20055;-67
2023/08/16 14:39:18;;;;;;;4.68;4.22;;;30.40;87.90;;;;;;5090538;28;20047;-68
2023/08/16 14:42:22;;;;;;;10.52;3.95;;;30.30;87.50;;;;;;5091256;28;20051;-68
2023/08/16 14:45:26;;;;;;;6.03;3.95;;;30.30;88.10;;;;;;5091632;28;20043;-68
2023/08/16 14:48:30;;;;;;;7.20;3.90;;;30.30;88.30;;;;;;5091517;28;20035;-68
2023/08/16 14:51:34;;;;;;;6.90;3.45;;;30.30;88.20;;;;;;5091288;28;20043;-68
2023/08/16 14:54:38;;;;;;;5.35;3.30;;;30.40;88.40;;;;;;5091198;28;20039;-67
2023/08/16 14:57:44;;;;;;;5.05;3.88;;;30.40;88.80;;;;;;5091075;28;20051;-68
2023/08/16 15:00:48;;;;;;;4.43;3.78;;;30.40;88.80;;;;;;5090825;28;20035;-68
2023/08/16 15:03:52;;;;;;;4.72;4.05;;;30.40;89.10;;;;;;5091583;28;20055;-67
2023/08/16 15:06:56;;;;;;;7.15;3.95;;;30.40;89.00;;;;;;5091021;28;20051;-67
2023/08/16 15:10:00;;;;;;;8.93;4.03;;;30.40;88.80;;;;;;5090759;28;20047;-67
2023/08/16 15:13:04;;;;;;;4.28;3.50;;;30.40;88.70;;;;;;5090944;28;20051;-66
2023/08/16 15:16:08;;;;;;;4.10;3.47;;;30.40;88.60;;;;;;5089727;28;20042;-67
2023/08/16 15:19:12;;;;;;;6.18;4.70;;;30.40;88.90;;;;;;5090834;28;20055;-67
2023/08/16 15:22:16;;;;;;;5.75;4.00;;;30.40;88.70;;;;;;5090780;28;20039;-67
2023/08/16 15:25:20;;;;;;;8.30;4.38;;;30.40;89.10;;;;;;5090680;28;20047;-67
2023/08/16 15:28:23;;;;;;;8.23;3.85;;;30.40;89.40;;;;;;5090895;28;20051;-67
2023/08/16 15:31:27;;;;;;;5.97;3.67;;;30.30;89.40;;;;;;5090814;28;20032;-66
2023/08/16 15:34:31;;;;;;;10.88;4.38;;;30.30;89.30;;;;;;5090882;28;20398;-66
2023/08/16 15:37:35;;;;;;;6.32;3.65;;;30.20;88.70;;;;;;5090598;28;20059;-67
2023/08/16 15:40:39;;;;;;;4.03;3.17;;;30.20;88.10;;;;;;5090822;28;20047;-67
2023/08/16 15:43:43;;;;;;;6.60;3.30;;;30.20;88.40;;;;;;5090751;28;20050;-67
2023/08/16 15:46:47;;;;;;;3.45;3.13;;;30.10;88.50;;;;;;5090654;28;20047;-67
2023/08/16 15:49:51;;;;;;;9.93;3.80;;;30.10;88.70;;;;;;5090856;28;20051;-67
2023/08/16 15:52:55;;;;;;;4.65;3.50;;;30.10;88.80;;;;;;5093573;28;20043;-67